createdAt,value
2019-05-09T00:02:40.886Z,47.49
2019-05-09T00:07:46.347Z,47.67
2019-05-09T00:12:53.908Z,47.46
2019-05-09T00:17:58.962Z,47.62
2019-05-09T00:23:04.578Z,47.33
2019-05-09T00:28:10.343Z,47.43
2019-05-09T00:33:17.450Z,47.63
2019-05-09T00:38:24.639Z,47.42
2019-05-09T00:43:30.205Z,47.69
2019-05-09T00:48:38.274Z,47.67
2019-05-09T00:53:45.739Z,47.69
2019-05-09T00:58:53.584Z,48.02
2019-05-09T01:03:58.495Z,47.75
2019-05-09T01:09:05.396Z,47.91
2019-05-09T01:14:11.062Z,47.61
2019-05-09T01:19:16.248Z,47.97
2019-05-09T01:24:23.243Z,47.97
2019-05-09T01:29:30.094Z,47.83
2019-05-09T01:34:36.679Z,47.85
2019-05-09T01:39:43.499Z,48.06
2019-05-09T01:44:49.252Z,47.82
2019-05-09T01:49:54.620Z,48.10
2019-05-09T01:55:00.094Z,48.31
2019-05-09T02:00:09.141Z,48.20
2019-05-09T02:05:14.592Z,48.52
2019-05-09T02:10:20.055Z,48.41
2019-05-09T02:15:34.160Z,48.43
2019-05-09T02:20:40.464Z,48.44
2019-05-09T02:25:45.853Z,48.51
2019-05-09T02:30:54.845Z,48.32
2019-05-09T02:36:02.036Z,48.54
2019-05-09T02:41:08.553Z,48.49
2019-05-09T02:46:18.870Z,48.74
2019-05-09T02:51:23.310Z,49.00
2019-05-09T02:56:29.987Z,49.25
2019-05-09T03:01:40.561Z,49.04
2019-05-09T03:06:48.890Z,49.27
2019-05-09T03:11:54.147Z,49.44
2019-05-09T03:16:59.975Z,49.29
2019-05-09T03:22:12.871Z,49.66
2019-05-09T03:27:28.505Z,49.53
2019-05-09T03:32:32.888Z,49.45
2019-05-09T03:37:38.148Z,49.13
2019-05-09T03:42:43.937Z,48.96
2019-05-09T03:47:52.664Z,49.21
2019-05-09T03:52:58.066Z,49.12
2019-05-09T03:58:10.672Z,48.96
2019-05-09T04:03:19.931Z,48.80
2019-05-09T04:08:23.328Z,48.88
2019-05-09T04:13:30.418Z,48.80
2019-05-09T04:18:37.694Z,48.80
2019-05-09T04:23:42.817Z,48.60
2019-05-09T04:28:48.078Z,48.25
2019-05-09T04:33:53.879Z,48.60
2019-05-09T04:38:59.349Z,48.33
2019-05-09T04:44:14.186Z,48.55
2019-05-09T04:49:13.649Z,48.20
2019-05-09T04:54:19.385Z,47.89
2019-05-09T04:59:24.682Z,47.74
2019-05-09T05:04:30.553Z,47.49
2019-05-09T05:09:37.953Z,47.72
2019-05-09T05:14:43.003Z,47.57
2019-05-09T05:19:49.370Z,47.90
2019-05-09T05:24:59.567Z,47.57
2019-05-09T05:30:07.343Z,47.69
2019-05-09T05:35:17.918Z,47.26
2019-05-09T05:40:23.280Z,47.10
2019-05-09T05:45:30.620Z,47.28
2019-05-09T05:50:38.233Z,47.18
2019-05-09T05:55:43.343Z,47.08
2019-05-09T06:00:48.854Z,46.75
2019-05-09T06:05:54.715Z,46.83
2019-05-09T06:11:00.705Z,46.33
2019-05-09T06:16:08.439Z,46.20
2019-05-09T06:21:13.379Z,46.11
2019-05-09T06:26:19.025Z,45.87
2019-05-09T06:31:24.132Z,46.66
2019-05-09T06:36:29.550Z,45.98
2019-05-09T06:41:34.670Z,46.07
2019-05-09T06:46:41.694Z,45.97
2019-05-09T06:51:47.681Z,46.18
2019-05-09T06:56:53.357Z,45.73
2019-05-09T07:02:08.245Z,46.06
2019-05-09T07:07:14.998Z,45.52
2019-05-09T07:12:20.219Z,45.21
2019-05-09T07:17:31.887Z,45.21
2019-05-09T07:22:39.265Z,45.45
2019-05-09T07:27:48.327Z,44.73
2019-05-09T07:33:00.725Z,44.64
2019-05-09T07:38:08.274Z,44.58
2019-05-09T07:43:13.023Z,44.27
2019-05-09T07:48:18.217Z,44.71
2019-05-09T07:53:23.633Z,43.70
2019-05-09T07:58:29.112Z,43.57
2019-05-09T08:03:34.529Z,45.03
2019-05-09T08:08:40.100Z,43.64
2019-05-09T08:13:45.214Z,43.89
2019-05-09T08:18:51.118Z,43.45
2019-05-09T08:23:57.848Z,42.34
2019-05-09T08:29:03.390Z,42.11
2019-05-09T08:34:08.688Z,41.89
2019-05-09T08:39:14.121Z,40.49
2019-05-09T08:44:19.757Z,41.45
2019-05-09T08:49:28.651Z,40.57
2019-05-09T08:54:44.515Z,41.24
2019-05-09T08:59:50.864Z,40.13
2019-05-09T09:04:58.312Z,41.11
2019-05-09T09:10:04.555Z,39.49
2019-05-09T09:15:10.585Z,38.65
2019-05-09T09:20:18.194Z,39.33
2019-05-09T09:25:25.210Z,39.00
2019-05-09T09:30:30.744Z,39.51
2019-05-09T09:35:38.273Z,38.72
2019-05-09T09:40:43.852Z,39.53
2019-05-09T09:46:05.119Z,38.95
2019-05-09T09:50:58.013Z,38.38
2019-05-09T09:56:03.721Z,37.79
2019-05-09T10:01:10.865Z,38.56
2019-05-09T10:06:16.193Z,38.31
2019-05-09T10:11:21.745Z,37.71
2019-05-09T10:16:47.636Z,37.59
2019-05-09T10:21:53.799Z,37.37
2019-05-09T10:27:09.813Z,39.10
2019-05-09T10:32:18.205Z,37.84
2019-05-09T10:37:23.351Z,38.76
2019-05-09T10:42:30.498Z,37.67
2019-05-09T10:47:37.765Z,37.20
2019-05-09T10:52:43.374Z,38.14
2019-05-09T10:57:52.436Z,38.61
2019-05-09T11:02:58.376Z,37.35
2019-05-09T11:08:03.894Z,37.16
2019-05-09T11:13:09.738Z,37.77
2019-05-09T11:18:15.277Z,37.09
2019-05-09T11:23:20.537Z,36.36
2019-05-09T11:28:28.390Z,38.49
2019-05-09T11:33:33.227Z,36.56
2019-05-09T11:38:43.658Z,38.34
2019-05-09T11:43:45.454Z,36.57
2019-05-09T11:48:50.646Z,36.92
2019-05-09T11:53:58.164Z,36.43
2019-05-09T11:59:03.482Z,36.75
2019-05-09T12:04:08.710Z,37.10
2019-05-09T12:09:14.981Z,36.72
2019-05-09T12:14:20.505Z,37.05
2019-05-09T12:19:29.313Z,37.25
2019-05-09T12:24:33.027Z,37.53
2019-05-09T12:29:38.908Z,36.97
2019-05-09T12:34:44.257Z,37.65
2019-05-09T12:39:49.629Z,37.35
2019-05-09T12:44:55.177Z,37.88
2019-05-09T12:50:02.816Z,37.14
2019-05-09T12:55:08.365Z,36.51
2019-05-09T13:00:15.667Z,36.51
2019-05-09T13:05:21.002Z,37.92
2019-05-09T13:10:28.225Z,37.60
2019-05-09T13:15:38.486Z,38.05
2019-05-09T13:20:43.743Z,38.74
2019-05-09T13:25:50.340Z,37.97
2019-05-09T13:30:58.452Z,39.12
2019-05-09T13:36:03.779Z,39.10
2019-05-09T13:41:09.024Z,38.96
2019-05-09T13:46:14.525Z,40.86
2019-05-09T13:51:20.119Z,40.03
2019-05-09T13:56:27.803Z,41.30
2019-05-09T14:01:32.673Z,41.77
2019-05-09T14:06:38.952Z,41.80
2019-05-09T14:11:47.967Z,43.26
2019-05-09T14:16:52.828Z,44.79
2019-05-09T14:21:58.789Z,45.73
2019-05-09T14:27:05.144Z,45.55
2019-05-09T14:32:10.606Z,45.98
2019-05-09T14:37:17.994Z,46.72
2019-05-09T14:42:22.911Z,46.62
2019-05-09T14:47:28.789Z,47.37
2019-05-09T14:52:33.957Z,48.26
2019-05-09T14:57:39.098Z,51.39
2019-05-09T15:02:44.682Z,50.90
2019-05-09T15:07:53.589Z,51.46
2019-05-09T15:12:58.580Z,52.53
2019-05-09T15:18:05.042Z,53.14
2019-05-09T15:23:10.399Z,53.43
2019-05-09T15:28:17.611Z,54.32
2019-05-09T15:33:23.272Z,55.42
2019-05-09T15:38:29.163Z,57.02
2019-05-09T15:43:34.796Z,58.08
2019-05-09T15:48:40.563Z,57.32
2019-05-09T15:53:48.503Z,57.55
2019-05-09T15:58:53.033Z,58.71
2019-05-09T16:03:58.625Z,59.23
2019-05-09T16:09:08.003Z,59.86
2019-05-09T16:14:11.562Z,60.30
2019-05-09T16:19:16.826Z,61.08
2019-05-09T16:24:22.229Z,62.48
2019-05-09T16:29:30.369Z,62.55
2019-05-09T16:34:34.870Z,63.65
2019-05-09T16:39:40.171Z,63.30
2019-05-09T16:44:47.733Z,64.24
2019-05-09T16:49:52.960Z,64.25
2019-05-09T16:55:08.868Z,65.17
2019-05-09T17:00:18.388Z,64.03
2019-05-09T17:05:24.667Z,65.65
2019-05-09T17:10:29.814Z,65.88
2019-05-09T17:15:35.329Z,65.67
2019-05-09T17:20:55.025Z,65.58
2019-05-09T17:26:00.477Z,66.10
2019-05-09T17:31:07.938Z,66.06
2019-05-09T17:36:13.439Z,66.12
2019-05-09T17:41:19.016Z,67.17
2019-05-09T17:46:24.574Z,66.70
2019-05-09T17:51:33.906Z,67.25
2019-05-09T17:56:37.861Z,66.72
2019-05-09T18:01:44.904Z,68.77
2019-05-09T18:06:50.776Z,68.47
2019-05-09T18:11:57.822Z,68.36
2019-05-09T18:17:03.341Z,69.66
2019-05-09T18:22:09.069Z,69.72
2019-05-09T18:27:14.721Z,70.49
2019-05-09T18:32:38.297Z,69.99
2019-05-09T18:37:44.077Z,69.67
2019-05-09T18:42:49.399Z,71.27
2019-05-09T18:47:54.655Z,71.40
2019-05-09T18:53:00.215Z,72.13
2019-05-09T18:58:07.105Z,72.43
2019-05-09T19:03:12.533Z,72.90
2019-05-09T19:08:18.377Z,72.77
2019-05-09T19:13:23.574Z,71.62
2019-05-09T19:18:30.703Z,72.39
2019-05-09T19:23:36.110Z,73.29
2019-05-09T19:28:41.404Z,73.87
2019-05-09T19:33:46.853Z,72.95
2019-05-09T19:38:52.279Z,72.80
2019-05-09T19:43:57.619Z,73.07
2019-05-09T19:49:03.197Z,72.39
2019-05-09T19:54:09.070Z,72.99
2019-05-09T19:59:14.729Z,73.27
2019-05-09T20:04:19.994Z,73.33
2019-05-09T20:09:27.710Z,73.15
2019-05-09T20:14:34.949Z,73.12
2019-05-09T20:19:40.721Z,72.86
2019-05-09T20:24:46.216Z,72.57
2019-05-09T20:29:51.530Z,73.31
2019-05-09T20:34:56.692Z,75.08
2019-05-09T20:40:02.174Z,75.37
2019-05-09T20:45:08.462Z,74.45
2019-05-09T20:50:13.925Z,74.65
2019-05-09T20:55:19.230Z,74.01
2019-05-09T21:00:24.965Z,75.30
2019-05-09T21:05:30.469Z,74.03
2019-05-09T21:10:36.885Z,73.61
2019-05-09T21:15:42.463Z,74.49
2019-05-09T21:20:48.147Z,74.14
2019-05-09T21:25:53.673Z,74.73
2019-05-09T21:31:01.022Z,73.58
2019-05-09T21:36:06.415Z,74.59
2019-05-09T21:41:12.357Z,74.54
2019-05-09T21:46:18.841Z,74.77
2019-05-09T21:51:24.303Z,75.17
2019-05-09T21:56:30.055Z,74.78
2019-05-09T22:01:36.015Z,74.50
2019-05-09T22:06:41.380Z,74.17
2019-05-09T22:11:47.044Z,74.58
2019-05-09T22:16:53.343Z,74.01
2019-05-09T22:21:58.676Z,74.61
2019-05-09T22:27:04.679Z,74.73
2019-05-09T22:32:10.129Z,75.52
2019-05-09T22:37:15.495Z,74.85
2019-05-09T22:42:20.743Z,75.71
2019-05-09T22:47:26.209Z,75.28
2019-05-09T22:52:31.976Z,75.76
2019-05-09T22:57:37.686Z,74.94
2019-05-09T23:02:43.092Z,75.57
2019-05-09T23:07:48.326Z,76.36
2019-05-09T23:12:53.996Z,76.59
2019-05-09T23:17:59.190Z,76.49
2019-05-09T23:23:06.296Z,77.16
2019-05-09T23:28:11.703Z,76.94
2019-05-09T23:33:17.102Z,76.95
2019-05-09T23:38:22.659Z,77.10
2019-05-09T23:43:28.170Z,76.31
2019-05-09T23:48:33.483Z,76.01
2019-05-09T23:53:39.036Z,76.49
2019-05-09T23:59:02.734Z,75.97
